This is the latest recevied weather packets stored in our database for station/object WE0DX-1. If no packets are shown the sender has not sent any weather packets the latest 10 day(s).
| Time | Temp. | Humidity | Pressure | Rain* | Wind** | Luminosity | Snow |
|---|---|---|---|---|---|---|---|
| 1777994908 | 8.33° C | 97% | 1012 hPa | 0 mm | - | 78 W/m² | - |
| 1777994605 | 8.33° C | 97% | 1012.3 hPa | 1.78 mm | - | 40 W/m² | - |
| 1777994300 | 8.33° C | 96% | 1012.1 hPa | 1.78 mm | - | 38 W/m² | - |
| 1777993997 | 8.33° C | 95% | 1012.4 hPa | 0 mm | - | 37 W/m² | - |
| 1777993694 | 8.33° C | 97% | 1012.1 hPa | 0 mm | - | 40 W/m² | - |
| 1777993391 | 8.33° C | 97% | 1011.6 hPa | 0 mm | - | 47 W/m² | - |
| 1777993091 | 7.78° C | 97% | 1011.8 hPa | 0 mm | - | 49 W/m² | - |
| 1777992790 | 8.33° C | 98% | 1011.7 hPa | 1.27 mm | - | 44 W/m² | - |
| 1777992487 | 8.33° C | 98% | 1011.6 hPa | 1.27 mm | - | 40 W/m² | - |
| 1777992185 | 8.33° C | 98% | 1011.5 hPa | 1.78 mm | - | 46 W/m² | - |
| 1777991881 | 8.33° C | 99% | 1011.7 hPa | 1.27 mm | - | 39 W/m² | - |
| 1777991579 | 8.33° C | 98% | 1011.7 hPa | 3.05 mm | - | 29 W/m² | - |
| 1777991276 | 8.33° C | 98% | 1011.9 hPa | 3.05 mm | - | 33 W/m² | - |
| 1777990973 | 8.33° C | 97% | 1012.1 hPa | 1.27 mm | - | 15 W/m² | - |
| 1777990671 | 7.78° C | 97% | 1012.1 hPa | 1.78 mm | - | 22 W/m² | - |
| 1777990368 | 8.33° C | 97% | 1011.8 hPa | 1.78 mm | - | 27 W/m² | - |
| 1777990064 | 8.33° C | 97% | 1012.1 hPa | 3.05 mm | - | 21 W/m² | - |
| 1777989761 | 8.33° C | 97% | 1012 hPa | 4.32 mm | - | 22 W/m² | - |
| 1777989457 | 8.33° C | 96% | 1011.5 hPa | 3.05 mm | - | 26 W/m² | - |
| 1777989154 | 8.33° C | 96% | 1011.5 hPa | 1.78 mm | - | 19 W/m² | - |
| 1777988850 | 7.78° C | 96% | 1011.8 hPa | 1.27 mm | - | 12 W/m² | - |
| 1777988547 | 8.33° C | 95% | 1011.6 hPa | 3.05 mm | - | 10 W/m² | - |
| 1777988244 | 8.33° C | 94% | 1011.9 hPa | 3.56 mm | - | 7 W/m² | - |
| 1777987941 | 7.78° C | 94% | 1011.6 hPa | 4.83 mm | - | 7 W/m² | - |
| 1777987636 | 8.33° C | 94% | 1011.2 hPa | 3.05 mm | - | 10 W/m² | - |
* Rain latest hour (hover to see other rain measurements)
** Current wind speed in m/s (hover to see current wind gust speed)